Pahrump, Nevada Weather observations

Data are for observation ending at time listed.
 Day   Time    Ave.   Ave.  Ave.  Vector   Max.   Stn.    Total    Solar   Ave.  
  of    of     Air    Rel.  Wind   Wind    Wind   Baro.  Precip.   Rad.    Soil  
Year   Day     Temp.  Hum.  Speed  Dir.    Gust   Pres.                    Temp. 
2014   (PST)    F      %     mph   deg.    mph     mb.     in.     W/m2     F   
------------------------------------------------------------------------------
 350   22:20   46.7    84    0.2   123      0.9   919.5    0.00       0    48.0
 350   22:30   46.3    85    0.7   207      1.5   919.4    0.00       0    48.0
 350   22:40   46.4    86    1.1   136      2.9   919.3    0.00       0    48.0
 350   22:50   46.4    88    2.1   111      3.2   919.3    0.00       0    48.0
 350   23:00   46.0    87    3.0   141      4.4   919.2    0.00       0    47.9
 350   23:10   45.9    88    2.5   166      3.7   919.2    0.00       0    47.9
 350   23:20   45.8    88    1.8   150      2.5   919.2    0.00       0    47.8
 350   23:30   45.7    87    1.4   161      2.2   919.1    0.00       0    47.7
 350   23:40   45.6    87    1.9   185      3.1   919.0    0.00       0    47.7
 350   23:50   45.9    87    2.4   181      4.5   919.0    0.00       0    47.6
 351    0:00   45.7    86    2.0   263      5.6   919.0    0.00       0    47.6
 351    0:10   44.9    87    1.2   256      2.4   918.9    0.00       0    47.5
 351    0:20   44.6    88    1.0   244      2.6   918.9    0.00       0    47.5
 351    0:30   44.5    88    1.0   248      2.8   918.8    0.00       0    47.5
 351    0:40   44.6    88    0.3   249      1.5   918.8    0.00       0    47.4
 351    0:50   44.6    88    1.1   313      2.9   918.9    0.00       0    47.4
 351    1:00   44.4    89    1.3    30      3.2   918.7    0.00       0    47.4
 351    1:10   44.2    90    2.0    55      3.4   918.7    0.00       0    47.4
 351    1:20   44.3    91    1.8    69      2.9   918.8    0.00       0    47.4
 351    1:30   44.6    91    2.4    87      5.0   918.8    0.00       0    47.4
 351    1:40   44.7    90    3.3    84      5.7   918.7    0.00       0    47.4
 351    1:50   44.8    90    1.8   100      3.2   918.8    0.00       0    47.3
 351    2:00   44.9    90    2.6   104      3.8   918.7    0.00       0    47.3
 351    2:10   45.1    89    1.3   135      3.3   918.7    0.00       0    47.3
 351    2:20   45.2    89    0.3   217      1.2   918.6    0.00       0    47.3
 351    2:30   45.3    89    1.5   124      3.4   918.5    0.00       0    47.3
 351    2:40   45.7    86    3.2   135      6.7   918.4    0.00       0    47.3
 351    2:50   46.2    81    3.7   152      6.1   918.4    0.00       0    47.2
 351    3:00   46.4    82    2.7   204      5.9   918.4    0.00       0    47.2
 351    3:10   45.8    84    1.2   280      4.0   918.5    0.00       0    47.2
 351    3:20   44.9    87    1.2   260      4.6   918.5    0.00       0    47.2
 351    3:30   44.4    89    0.1   156      1.2   918.4    0.00       0    47.2
 351    3:40   44.5    89    0.5   298      1.9   918.3    0.00       0    47.2
 351    3:50   44.3    90    0.8   234      1.5   918.4    0.01       0    47.2
 351    4:00   44.2    90    0.6   157      1.8   918.4    0.00       0    47.2
 351    4:10   44.3    90    0.1   197      1.2   918.4    0.00       0    47.2
 351    4:20   44.3    90    0.7   240      2.0   918.5    0.00       0    47.2
 351    4:30   44.3    90    1.8   130      3.4   918.5    0.00       0    47.1
 351    4:40   44.5    89    4.5   141      7.4   918.5    0.00       0    47.1
 351    4:50   44.6    86    4.6   163      6.9   918.5    0.01       0    47.1
 351    5:00   44.5    86    4.1   145      6.6   918.5    0.00       0    47.1
 351    5:10   44.3    88    4.8   131      7.7   918.4    0.00       0    47.1
 351    5:20   44.6    85    3.2   141      5.3   918.4    0.00       0    47.1
 351    5:30   44.8    86    3.1   135      4.7   918.5    0.00       0    47.0
 351    5:40   44.8    87    2.1   151      3.6   918.5    0.00       0    47.0
 351    5:50   44.7    87    2.3   272      4.3   918.7    0.00       0    47.0
 351    6:00   43.9    89    2.0   276      4.6   918.9    0.00       0    47.0
 351    6:10   43.9    90    1.4   288      3.2   919.0    0.00       0    47.0
 351    6:20   43.7    90    1.5     2      3.1   919.0    0.00       0    47.0
 351    6:30   43.7    92    1.9    80      3.4   919.0    0.01       0    47.0
 351    6:40   43.6    92    2.1    87      3.6   919.0    0.00       0    46.9
 351    6:50   43.7    92    2.2    78      3.7   919.0    0.01       0    46.9
 351    7:00   43.8    92    2.2    79      4.0   919.0    0.00       0    46.9
 351    7:10   43.9    92    1.4   311      3.0   919.1    0.00       0    46.9
 351    7:20   43.7    92    1.5   291      3.2   919.3    0.00       0    46.9
 351    7:30   43.6    93    1.5   279      3.4   919.4    0.00       0    46.9
 351    7:40   43.6    93    0.7   280      2.3   919.5    0.00       0    46.9
 351    7:50   43.7    93    0.9   301      3.2   919.5    0.00       0    46.9
 351    8:00   43.7    93    1.7   334      2.9   919.6    0.00       0    46.9
 351    8:10   43.6    93    1.9     5      3.3   919.7    0.00       0    46.9
 351    8:20   44.2    93    1.0    32      2.3   919.8    0.00       0    46.9
 351    8:30   44.5    92    1.0   332      1.8   920.0    0.01       0    46.9
 351    8:40   44.6    91    1.2   336      2.1   920.2    0.00       0    47.0
 351    8:50   45.0    90    0.6   338      1.8   920.3    0.00       0    47.0
 351    9:00   45.3    88    1.2    67      1.9   920.4    0.00       0    47.1
 351    9:10   45.6    88    1.1    37      2.1   920.6    0.00       0    47.2
 351    9:20   45.8    87    0.5   332      1.4   920.8    0.00       0    47.3
 351    9:30   46.2    86    0.6    41      1.5   921.0    0.00       0    47.4
 351    9:40   46.4    86    1.0    31      2.1   921.1    0.00       0    47.5
 351    9:50   46.5    85    1.1    31      2.5   921.2    0.00       0    47.6
 351   10:00   46.8    83    0.8    47      2.1   921.3    0.00       0    47.7
 351   10:10   46.9    82    0.6    24      1.8   921.3    0.00       0    47.8
 351   10:20   46.9    82    0.8   347      1.9   921.3    0.01       0    47.9
 351   10:30   46.7    82    0.9    25      2.0   921.3    0.00       0    47.9
 351   10:40   46.7    80    1.2    45      2.5   921.3    0.00       0    48.0
 351   10:50   47.0    80    1.4    28      3.9   921.2    0.00       0    48.1
 351   11:00   47.6    82    2.3    43      4.9   921.1    0.00      26    48.2
 351   11:10   47.7    81    2.5    46      4.4   921.0    0.00       0    48.3
 351   11:20   47.8    79    1.2    10      2.7   921.1    0.00      47    48.5
 351   11:30   47.9    77    1.2     7      2.6   921.1    0.00      55    48.7
 351   11:40   47.9    76    1.8   332      2.6   921.0    0.00      38    48.8
 351   11:50   47.7    77    2.1   325      3.8   920.9    0.00       0    48.9
 351   12:00   47.7    77    2.6   313      4.2   920.9    0.00       5    48.9
 351   12:10   47.9    78    1.4   294      3.7   920.9    0.00      20    49.0
 351   12:20   47.8    78    1.4   273      3.4   920.9    0.00      63    49.0
 351   12:30   47.6    80    1.8   280      2.9   920.9    0.00      79    49.0
 351   12:40   47.6    80    0.9   263      3.1   920.8    0.00     113    49.0
 351   12:50   47.9    81    1.8   272      3.4   920.7    0.00     117    49.0
 351   13:00   48.0    80    1.2   282      2.6   920.7    0.00     104    49.0
 351   13:10   47.9    79    1.1   294      2.6   920.7    0.00      72    49.1
 351   13:20   47.3    80    0.9   231      2.5   920.7    0.00      65    49.1
 351   13:30   46.9    82    0.9   204      2.3   920.7    0.00      61    49.1
 351   13:40   47.1    82    1.2   120      2.6   920.6    0.00      82    49.1
 351   13:50   47.4    81    2.5   131      4.1   920.7    0.00     139    49.2
 351   14:00   47.8    81    3.3   134      6.2   920.7    0.00     169    49.2
 351   14:10   47.8    80    4.9   137      7.6   920.7    0.00     124    49.2
 351   14:20   48.0    81    4.3   138      7.1   920.7    0.00     180    49.2
 351   14:30   48.1    80    5.2   158      7.9   920.7    0.00      23    49.3
 351   14:40   48.2    79    5.2   158      8.8   920.8    0.00       0    49.4
 351   14:50   48.2    80    6.2   163      8.4   920.9    0.00       1    49.4
 351   15:00   48.1    80    5.5   152      8.8   920.9    0.00       0    49.4
 351   15:10   48.3    80    5.3   152      8.1   920.9    0.00       0    49.4
 351   15:20   48.8    79    5.6   144      9.5   921.0    0.00       1    49.4
 351   15:30   48.9    78    6.2   140      9.2   921.0    0.00      48    49.4
 351   15:40   48.5    78    6.7   142      9.9   921.0    0.00      35    49.4
 351   15:50   48.1    79    6.7   141     10.4   921.0    0.00      36    49.4
 351   16:00   48.2    79    6.2   144     10.7   921.0    0.00      35    49.3
 351   16:10   48.1    79    6.6   140      9.3   921.0    0.00      14    49.3
 351   16:20   47.9    79    5.5   148      8.4   921.0    0.00       7    49.2
 351   16:30   47.9    79    4.6   156      7.7   921.1    0.00       5    49.1
 351   16:40   48.0    79    5.1   167      7.8   921.2    0.00       0    49.0
 351   16:50   48.0    79    5.3   177      8.5   921.2    0.00       0    48.9
 351   17:00   47.9    80    4.7   168      6.9   921.3    0.00       0    48.9
 351   17:10   47.8    82    3.7   183      5.8   921.3    0.00       0    48.8
 351   17:20   47.7    82    4.3   172      6.3   921.4    0.00       0    48.8
 351   17:30   47.7    82    3.2   152      4.7   921.3    0.00       0    48.7
 351   17:40   47.8    82    3.7   159      5.6   921.4    0.00       0    48.7
 351   17:50   47.6    82    4.8   170      7.4   921.4    0.00       0    48.6
 351   18:00   47.5    82    4.7   172      6.7   921.5    0.00       0    48.6
 351   18:10   47.3    82    5.1   172      7.5   921.6    0.00       0    48.5
 351   18:20   47.3    82    5.2   176      7.5   921.8    0.00       0    48.5
 351   18:30   47.1    83    5.2   167      8.0   921.9    0.00       0    48.4
 351   18:40   46.9    84    6.0   170      8.8   921.9    0.00       0    48.3
 351   18:50   46.7    84    5.2   168      7.5   921.8    0.00       0    48.3
 351   19:00   46.6    84    4.3   180      7.4   921.9    0.00       0    48.3
 351   19:10   46.5    84    1.7   222      5.0   921.9    0.00       0    48.2
 351   19:20   46.3    84    1.6   212      3.2   922.0    0.00       0    48.1
 351   19:30   46.4    84    1.7   205      4.1   922.1    0.00       0    48.1
 351   19:40   46.3    84    1.3   219      3.4   922.1    0.00       0    48.1
 351   19:50   46.2    85    3.1   181      4.9   922.1    0.00       0    48.0
 351   20:00   46.0    87    3.6   172      5.6   922.2    0.00       0    48.0
 351   20:10   45.8    88    4.0   177      5.7   922.2    0.00       0    48.0
 351   20:20   45.6    89    4.4   168      6.4   922.1    0.00       0    47.9
 351   20:30   45.6    89    3.1   178      5.0   922.2    0.00       0    47.9
 351   20:40   45.7    88    0.7   209      2.4   922.2    0.00       0    47.9
 351   20:50   45.5    89    1.3   340      2.6   922.3    0.00       0    47.8
 351   21:00   45.5    90    0.1    31      0.9   922.4    0.00       0    47.8
 351   21:10   45.6    90    0.2   107      0.9   922.4    0.00       0    47.8
 351   21:20   45.6    89    0.5    70      1.3   922.5    0.00       0    47.8
 351   21:30   45.7    90    1.1    67      2.2   922.5    0.00       0    47.8
 351   21:40   45.7    89    1.5    51      2.6   922.5    0.00       0    47.8
 351   21:50   45.7    90    0.8    35      1.8   922.6    0.00       0    47.8
 351   22:00   45.7    90    0.6    17      1.8   922.7    0.00       0    47.7
 351   22:10   45.7    90    0.3    33      1.8   922.8    0.00       0    47.7

Return to Pahrump, Nevada graphs page.


Western Regional Climate Center,wrcc@dri.edu